KNUW/NUW METAR and TAF weather

Enter ICAO airport designator
Station Type Date Time Source
KNUW METAR 2022/01/18 07:56 UTC NOAA

KNUW 180756Z 12003KT 4SM -RA BR BKN009 OVC020 07/07 A3002 RMK SLP165 T00720067 400720039 PNO


Station Type Date Time Source
KNUW Decoded METAR 2022/01/18 07:56 UTC NOAA

NAS WHIDBEY ISLAND, WA, United States (KNUW) 48-21N 122-39W 8M
Jan 18, 2022 - 02:56 AM EST / 2022.01.18 0756 UTC
Wind: from the ESE (120 degrees) at 3 MPH (3 KT):0
Visibility: 4 mile(s):0
Sky conditions: overcast
Weather: light rain; mist
Temperature: 45.0 F (7.2 C)
Dew Point: 44.1 F (6.7 C)
Relative Humidity: 96%
Pressure (altimeter): 30.02 in. Hg (1016 hPa)
ob: KNUW 180756Z 12003KT 4SM -RA BR BKN009 OVC020 07/07 A3002 RMK SLP165 T00720067 400720039 PNO
cycle: 8

Station Type Date Time Source
KNUW TAF 2022/01/18 07:06 UTC NOAA

TAF KNUW 1807/1907 13006KT 6000 -RA BR SCT005 OVC012 QNH2995INS
TEMPO 1807/1809 4000 -RA BR BKN005 OVC012
FM180900 13006KT 4000 -RA BR BKN003 OVC010 QNH2997INS
BECMG 1817/1818 12007KT 8000 BR VCSH SCT005 OVC012 QNH3006INS
TEMPO 1818/1900 BKN006 OVC012 LAST NO
AMDS AFT 1807 NEXT 1815 T09/1813Z T10/1822Z FS30171

Example: see airport list